Wheatley, Canada
Current Conditions -  °F | °C
As of 7:00 PM on Sunday 21 Dec 2014 (Local Time) from CYCK Reporting Station
Overcast Overcast  
Wind Chill: 24°   Ceiling: 2500
Heat Index: 32°   Visibility: 9mi
Dew Point: 25°   Wind: 10mph
Humidity: 75%   Direction: 150°SSE
Pressure: 30.25"   Gusts: NA
Location:  42.1°N, 82.45°W
Report Text: CYCK 220000Z AUTO 15009KT 9SM OVC025 00/M04 A3025 RMK SLP252
Loading
Personal Weather Stations






























Interactive Weather Map New forecast layout! Learn more

10-Day Weather Forecast

Advertisements
Track Severe Weather on mobile